createdAt,value
2018-04-29T00:00:40.620Z,6.00
2018-04-29T00:03:09.722Z,5.43
2018-04-29T00:05:38.814Z,5.37
2018-04-29T00:08:07.908Z,5.73
2018-04-29T00:10:37.022Z,5.20
2018-04-29T00:13:06.178Z,5.83
2018-04-29T00:15:35.286Z,4.90
2018-04-29T00:18:04.380Z,4.97
2018-04-29T00:20:33.482Z,5.30
2018-04-29T00:23:02.574Z,5.20
2018-04-29T00:25:31.678Z,6.50
2018-04-29T00:28:00.768Z,5.23
2018-04-29T00:30:29.878Z,5.50
2018-04-29T00:32:59.012Z,5.70
2018-04-29T00:35:28.079Z,5.30
2018-04-29T00:37:57.174Z,5.80
2018-04-29T00:40:26.284Z,5.60
2018-04-29T00:42:55.375Z,6.27
2018-04-29T00:45:24.495Z,6.10
2018-04-29T00:47:53.593Z,5.67
2018-04-29T00:50:22.699Z,5.10
2018-04-29T00:52:51.795Z,5.30
2018-04-29T00:55:20.906Z,6.37
2018-04-29T00:57:50.006Z,5.70
2018-04-29T01:00:19.115Z,5.97
2018-04-29T01:02:48.221Z,5.77
2018-04-29T01:05:17.343Z,6.20
2018-04-29T01:07:46.434Z,5.47
2018-04-29T01:10:15.552Z,6.87
2018-04-29T01:12:44.658Z,6.70
2018-04-29T01:15:13.778Z,5.57
2018-04-29T01:17:42.875Z,6.10
2018-04-29T01:20:11.979Z,5.53
2018-04-29T01:22:41.079Z,6.77
2018-04-29T01:25:10.210Z,6.73
2018-04-29T01:27:39.315Z,6.77
2018-04-29T01:30:08.414Z,6.40
2018-04-29T01:32:37.536Z,6.50
2018-04-29T01:35:06.654Z,5.63
2018-04-29T01:37:35.768Z,5.80
2018-04-29T01:40:04.869Z,5.20
2018-04-29T01:42:33.995Z,7.00
2018-04-29T01:45:03.131Z,7.10
2018-04-29T01:47:32.243Z,7.83
2018-04-29T01:50:01.352Z,7.13
2018-04-29T01:52:30.459Z,5.93
2018-04-29T01:54:59.554Z,7.33
2018-04-29T01:57:28.674Z,7.37
2018-04-29T01:59:57.774Z,6.77
2018-04-29T02:02:26.893Z,6.83
2018-04-29T02:04:55.996Z,7.20
2018-04-29T02:07:25.118Z,7.17
2018-04-29T02:09:54.234Z,6.80
2018-04-29T02:12:23.359Z,6.67
2018-04-29T02:14:52.468Z,7.00
2018-04-29T02:17:21.587Z,7.20
2018-04-29T02:19:50.699Z,6.70
2018-04-29T02:22:19.798Z,7.80
2018-04-29T02:24:48.908Z,7.30
2018-04-29T02:27:18.018Z,7.00
2018-04-29T02:29:47.140Z,7.27
2018-04-29T02:32:16.266Z,6.53
2018-04-29T02:34:45.383Z,7.20
2018-04-29T02:37:14.499Z,6.77
2018-04-29T02:39:43.640Z,7.90
2018-04-29T02:42:12.745Z,7.30
2018-04-29T02:44:41.864Z,8.20
2018-04-29T02:47:10.966Z,6.47
2018-04-29T02:49:40.088Z,6.50
2018-04-29T02:52:09.191Z,7.20
2018-04-29T02:54:38.298Z,6.97
2018-04-29T02:57:07.407Z,6.77
2018-04-29T02:59:36.543Z,7.63
2018-04-29T03:02:05.661Z,7.20
2018-04-29T03:04:34.796Z,7.50
2018-04-29T03:07:03.911Z,5.83
2018-04-29T03:09:33.047Z,6.67
2018-04-29T03:12:02.175Z,8.17
2018-04-29T03:14:31.284Z,7.30
2018-04-29T03:17:00.437Z,7.20
2018-04-29T03:19:29.547Z,6.73
2018-04-29T03:21:58.690Z,7.60
2018-04-29T03:24:27.818Z,6.50
2018-04-29T03:26:56.950Z,6.53
2018-04-29T03:29:26.134Z,7.17
2018-04-29T03:31:55.321Z,7.60
2018-04-29T03:34:24.453Z,8.20
2018-04-29T03:36:53.575Z,6.80
2018-04-29T03:39:22.708Z,6.97
2018-04-29T03:41:51.844Z,7.30
2018-04-29T03:44:20.974Z,6.43
2018-04-29T03:46:50.102Z,7.20
2018-04-29T03:49:19.222Z,7.20
2018-04-29T03:51:48.360Z,7.37
2018-04-29T03:54:17.508Z,7.37
2018-04-29T03:56:46.615Z,6.97
2018-04-29T03:59:21.622Z,7.40
2018-04-29T04:01:56.468Z,6.57
2018-04-29T04:04:25.595Z,6.77
2018-04-29T04:06:54.754Z,8.57
2018-04-29T04:09:23.909Z,7.20
2018-04-29T04:11:53.024Z,8.33
2018-04-29T04:14:22.156Z,7.30
2018-04-29T04:16:51.287Z,7.43
2018-04-29T04:19:20.419Z,7.40
2018-04-29T04:21:49.549Z,8.03
2018-04-29T04:24:18.716Z,6.87
2018-04-29T04:26:47.857Z,7.13
2018-04-29T04:29:16.995Z,6.60
2018-04-29T04:31:46.099Z,7.40
2018-04-29T04:34:15.234Z,7.13
2018-04-29T04:36:45.168Z,7.87
2018-04-29T04:39:14.309Z,8.30
2018-04-29T04:41:43.439Z,7.00
2018-04-29T04:44:12.640Z,6.77
2018-04-29T04:46:41.747Z,7.33
2018-04-29T04:49:10.860Z,7.47
2018-04-29T04:51:39.956Z,6.50
2018-04-29T04:54:09.065Z,6.70
2018-04-29T04:56:38.159Z,6.40
2018-04-29T04:59:07.295Z,6.50
2018-04-29T05:01:36.442Z,6.13
2018-04-29T05:04:05.546Z,6.83
2018-04-29T05:06:34.663Z,6.60
2018-04-29T05:09:03.794Z,6.40
2018-04-29T05:11:32.923Z,6.17
2018-04-29T05:14:02.042Z,6.10
2018-04-29T05:16:31.202Z,6.30
2018-04-29T05:19:00.320Z,6.30
2018-04-29T05:21:29.470Z,6.40
2018-04-29T05:23:58.589Z,6.80
2018-04-29T05:26:27.732Z,5.70
2018-04-29T05:28:56.909Z,5.87
2018-04-29T05:31:26.042Z,5.37
2018-04-29T05:33:55.192Z,6.80
2018-04-29T05:36:24.341Z,5.60
2018-04-29T05:38:53.447Z,6.20
2018-04-29T05:41:22.564Z,5.40
2018-04-29T05:43:51.739Z,5.73
2018-04-29T05:46:20.855Z,6.07
2018-04-29T05:48:49.955Z,5.73
2018-04-29T05:51:19.071Z,5.97
2018-04-29T05:53:48.189Z,5.03
2018-04-29T05:56:18.157Z,5.73
2018-04-29T05:58:48.089Z,6.47
2018-04-29T06:01:17.296Z,6.10
2018-04-29T06:03:46.387Z,6.17
2018-04-29T06:06:15.518Z,6.10
2018-04-29T06:08:44.631Z,5.17
2018-04-29T06:11:13.731Z,5.83
2018-04-29T06:13:42.839Z,5.40
2018-04-29T06:16:11.940Z,5.13
2018-04-29T06:18:41.515Z,5.40
2018-04-29T06:21:10.611Z,5.90
2018-04-29T06:23:39.719Z,5.20
2018-04-29T06:26:08.924Z,5.17
2018-04-29T06:28:37.954Z,6.57
2018-04-29T06:31:07.114Z,4.93
2018-04-29T06:33:36.234Z,5.03
2018-04-29T06:36:05.393Z,5.30
2018-04-29T06:38:34.508Z,6.23
2018-04-29T06:41:03.636Z,5.40
2018-04-29T06:43:32.748Z,5.20
2018-04-29T06:46:01.873Z,6.00
2018-04-29T06:48:31.008Z,5.33
2018-04-29T06:51:00.112Z,4.90
2018-04-29T06:53:29.298Z,5.30
2018-04-29T06:55:58.443Z,5.80
2018-04-29T06:58:27.739Z,5.17
2018-04-29T07:00:57.017Z,4.60
2018-04-29T07:03:26.188Z,6.00
2018-04-29T07:05:55.349Z,6.13
2018-04-29T07:08:24.508Z,5.57
2018-04-29T07:10:53.625Z,5.63
2018-04-29T07:13:22.730Z,5.23
2018-04-29T07:15:51.910Z,5.57
2018-04-29T07:18:21.188Z,5.27
2018-04-29T07:20:50.380Z,5.10
2018-04-29T07:23:19.501Z,5.47
2018-04-29T07:25:48.643Z,4.90
2018-04-29T07:28:17.769Z,4.87
2018-04-29T07:30:46.889Z,3.60
2018-04-29T07:33:16.032Z,3.90
2018-04-29T07:35:45.209Z,4.53
2018-04-29T07:38:14.320Z,3.57
2018-04-29T07:40:43.434Z,4.37
2018-04-29T07:43:12.540Z,3.80
2018-04-29T07:45:41.659Z,4.30
2018-04-29T07:48:10.757Z,3.53
2018-04-29T07:50:39.879Z,4.17
2018-04-29T07:53:08.982Z,3.50
2018-04-29T07:55:38.083Z,3.20
2018-04-29T07:58:07.175Z,2.93
2018-04-29T08:00:36.332Z,3.70
2018-04-29T08:03:05.435Z,3.10
2018-04-29T08:05:34.552Z,2.60
2018-04-29T08:08:03.684Z,3.50
2018-04-29T08:10:32.775Z,3.10
2018-04-29T08:13:01.902Z,3.20
2018-04-29T08:15:31.069Z,3.73
2018-04-29T08:18:00.173Z,3.60
2018-04-29T08:20:29.296Z,3.30
2018-04-29T08:22:58.413Z,2.80
2018-04-29T08:25:27.527Z,2.93
2018-04-29T08:27:56.667Z,4.13
2018-04-29T08:30:25.814Z,3.60
2018-04-29T08:32:54.919Z,2.50
2018-04-29T08:35:24.049Z,3.30
2018-04-29T08:37:53.491Z,3.40
2018-04-29T08:40:22.597Z,3.63
2018-04-29T08:42:51.700Z,2.83
2018-04-29T08:45:20.807Z,2.77
2018-04-29T08:47:51.701Z,2.80
2018-04-29T08:50:20.508Z,3.13
2018-04-29T08:52:49.310Z,2.97
2018-04-29T08:55:18.215Z,3.17
2018-04-29T08:57:47.017Z,2.70
2018-04-29T09:00:15.837Z,2.90
2018-04-29T09:02:44.642Z,3.33
2018-04-29T09:05:13.524Z,2.90
2018-04-29T09:07:42.329Z,3.17
2018-04-29T09:10:11.220Z,2.90
2018-04-29T09:12:39.940Z,3.40
2018-04-29T09:15:08.802Z,3.10
2018-04-29T09:17:37.667Z,2.83
2018-04-29T09:20:06.451Z,3.13
2018-04-29T09:22:35.315Z,3.20
2018-04-29T09:25:04.129Z,3.77
2018-04-29T09:27:32.914Z,2.80
2018-04-29T09:30:01.732Z,2.70
2018-04-29T09:32:30.546Z,2.83
2018-04-29T09:34:59.553Z,2.70
2018-04-29T09:37:28.353Z,1.90
2018-04-29T09:39:57.154Z,2.63
2018-04-29T09:42:25.979Z,2.40
2018-04-29T09:44:54.768Z,2.97
2018-04-29T09:47:23.566Z,2.93
2018-04-29T09:49:52.380Z,2.43
2018-04-29T09:52:21.179Z,2.90
2018-04-29T09:54:50.030Z,2.53
2018-04-29T09:57:18.851Z,3.00
2018-04-29T09:59:52.112Z,2.57
2018-04-29T10:02:25.367Z,3.00
2018-04-29T10:04:56.450Z,2.63
2018-04-29T10:07:27.269Z,3.03
2018-04-29T10:09:58.383Z,2.77
2018-04-29T10:12:29.126Z,2.30
2018-04-29T10:14:57.959Z,2.87
2018-04-29T10:17:29.077Z,3.00
2018-04-29T10:19:57.920Z,2.30
2018-04-29T10:22:27.723Z,2.90
2018-04-29T10:24:58.847Z,3.03
2018-04-29T10:27:27.682Z,3.20
2018-04-29T10:29:58.773Z,3.57
2018-04-29T10:32:28.623Z,2.90
2018-04-29T10:34:59.952Z,2.87
2018-04-29T10:37:28.817Z,3.07
2018-04-29T10:39:57.688Z,3.00
2018-04-29T10:42:28.633Z,2.50
2018-04-29T10:44:59.805Z,2.80
2018-04-29T10:47:41.834Z,2.50
2018-04-29T10:50:14.848Z,2.40
2018-04-29T10:52:48.037Z,3.07
2018-04-29T10:55:19.147Z,3.10
2018-04-29T10:57:51.063Z,2.70
2018-04-29T11:00:23.613Z,2.47
2018-04-29T11:02:52.525Z,3.20
2018-04-29T11:05:25.714Z,2.73
2018-04-29T11:07:54.656Z,3.07
2018-04-29T11:10:23.551Z,2.87
2018-04-29T11:12:53.137Z,2.30
2018-04-29T11:15:22.258Z,2.73
2018-04-29T11:17:51.389Z,2.07
2018-04-29T11:20:20.521Z,2.10
2018-04-29T11:22:49.624Z,2.57
2018-04-29T11:25:18.741Z,2.03
2018-04-29T11:27:47.847Z,2.20
2018-04-29T11:30:16.968Z,2.13
2018-04-29T11:32:46.062Z,2.20
2018-04-29T11:35:15.132Z,2.20
2018-04-29T11:37:43.929Z,2.73
2018-04-29T11:40:12.748Z,2.50
2018-04-29T11:42:41.557Z,2.47
2018-04-29T11:45:10.372Z,1.90
2018-04-29T11:47:39.193Z,2.10
2018-04-29T11:50:07.991Z,2.47
2018-04-29T11:52:36.801Z,2.20
2018-04-29T11:55:05.610Z,1.93
2018-04-29T11:57:34.410Z,2.40
2018-04-29T12:00:03.215Z,2.40
2018-04-29T12:02:32.082Z,2.10
2018-04-29T12:05:00.835Z,2.20
2018-04-29T12:07:29.648Z,2.67
2018-04-29T12:09:58.467Z,2.50
2018-04-29T12:12:27.246Z,2.37
2018-04-29T12:14:56.061Z,2.40
2018-04-29T12:17:24.859Z,2.33
2018-04-29T12:19:53.675Z,2.23
2018-04-29T12:22:22.556Z,2.50
2018-04-29T12:24:51.419Z,2.80
2018-04-29T12:27:20.217Z,2.40
2018-04-29T12:29:49.024Z,2.53
2018-04-29T12:32:17.823Z,2.53
2018-04-29T12:34:46.641Z,3.23
2018-04-29T12:37:15.450Z,2.30
2018-04-29T12:39:44.279Z,2.50
2018-04-29T12:42:13.097Z,2.17
2018-04-29T12:44:41.918Z,3.00
2018-04-29T12:47:17.176Z,2.27
2018-04-29T12:49:48.277Z,2.20
2018-04-29T12:52:17.131Z,1.97
2018-04-29T12:54:47.913Z,2.60
2018-04-29T12:57:20.992Z,2.60
2018-04-29T12:59:54.260Z,3.30
2018-04-29T13:02:23.107Z,2.20
2018-04-29T13:04:51.941Z,2.20
2018-04-29T13:07:25.053Z,2.30
2018-04-29T13:09:56.155Z,2.27
2018-04-29T13:12:27.290Z,2.77
2018-04-29T13:14:56.577Z,2.63
2018-04-29T13:17:27.735Z,2.23
2018-04-29T13:20:02.411Z,2.63
2018-04-29T13:22:31.341Z,2.50
2018-04-29T13:25:00.276Z,2.80
2018-04-29T13:27:29.203Z,2.70
2018-04-29T13:29:58.165Z,2.80
2018-04-29T13:32:29.358Z,2.53
2018-04-29T13:35:00.437Z,2.77
2018-04-29T13:37:33.301Z,3.10
2018-04-29T13:40:04.391Z,2.63
2018-04-29T13:42:33.505Z,2.80
2018-04-29T13:45:03.525Z,2.63
2018-04-29T13:47:32.650Z,2.73
2018-04-29T13:50:01.749Z,3.33
2018-04-29T13:52:30.820Z,3.00
2018-04-29T13:54:59.809Z,2.67
2018-04-29T13:57:28.740Z,3.30
2018-04-29T13:59:57.673Z,2.47
2018-04-29T14:02:28.568Z,2.70
2018-04-29T14:04:57.420Z,2.57
2018-04-29T14:07:26.309Z,2.93
2018-04-29T14:09:57.405Z,2.77
2018-04-29T14:12:26.252Z,2.83
2018-04-29T14:14:57.362Z,2.57
2018-04-29T14:17:26.481Z,2.70
2018-04-29T14:19:55.618Z,2.70
2018-04-29T14:22:24.710Z,2.80
2018-04-29T14:24:53.820Z,2.83
2018-04-29T14:27:22.923Z,2.47
2018-04-29T14:29:52.028Z,2.63
2018-04-29T14:32:21.148Z,2.13
2018-04-29T14:34:50.264Z,2.77
2018-04-29T14:37:19.373Z,2.83
2018-04-29T14:39:48.475Z,2.60
2018-04-29T14:42:17.592Z,3.50
2018-04-29T14:44:46.692Z,3.20
2018-04-29T14:47:15.820Z,3.37
2018-04-29T14:49:44.921Z,2.90
2018-04-29T14:52:14.029Z,2.50
2018-04-29T14:54:43.137Z,2.80
2018-04-29T14:57:12.245Z,3.07
2018-04-29T14:59:41.341Z,2.73
2018-04-29T15:02:10.468Z,3.30
2018-04-29T15:04:39.577Z,3.50
2018-04-29T15:07:08.708Z,3.03
2018-04-29T15:09:37.804Z,3.30
2018-04-29T15:12:06.931Z,3.40
2018-04-29T15:14:36.040Z,4.00
2018-04-29T15:17:05.167Z,3.33
2018-04-29T15:19:53.904Z,3.60
2018-04-29T15:22:23.045Z,4.43
2018-04-29T15:24:52.148Z,3.53
2018-04-29T15:27:21.257Z,5.00
2018-04-29T15:29:50.359Z,4.00
2018-04-29T15:32:19.474Z,4.37
2018-04-29T15:34:48.592Z,4.07
2018-04-29T15:37:17.709Z,3.30
2018-04-29T15:39:46.811Z,3.67
2018-04-29T15:42:15.935Z,4.43
2018-04-29T15:44:45.044Z,3.60
2018-04-29T15:47:14.173Z,4.30
2018-04-29T15:49:43.287Z,3.90
2018-04-29T15:52:12.454Z,3.40
2018-04-29T15:54:41.561Z,3.67
2018-04-29T15:57:10.684Z,3.50
2018-04-29T15:59:39.804Z,4.00
2018-04-29T16:02:08.966Z,3.60
2018-04-29T16:04:38.085Z,4.27
2018-04-29T16:07:07.205Z,4.70
2018-04-29T16:09:36.353Z,3.80
2018-04-29T16:12:05.469Z,3.40
2018-04-29T16:14:41.227Z,3.70
2018-04-29T16:17:10.264Z,3.37
2018-04-29T16:19:39.357Z,3.53
2018-04-29T16:22:09.401Z,3.03
2018-04-29T16:24:38.526Z,3.30
2018-04-29T16:27:07.647Z,4.67
2018-04-29T16:29:38.807Z,3.77
2018-04-29T16:32:07.611Z,3.63
2018-04-29T16:34:38.329Z,3.33
2018-04-29T16:37:07.168Z,3.13
2018-04-29T16:39:35.984Z,3.33
2018-04-29T16:42:04.791Z,2.80
2018-04-29T16:44:33.591Z,3.20
2018-04-29T16:47:02.404Z,3.10
2018-04-29T16:49:31.208Z,2.60
2018-04-29T16:52:00.023Z,2.97
2018-04-29T16:54:29.764Z,3.43
2018-04-29T16:56:58.571Z,2.73
2018-04-29T16:59:27.373Z,2.97
2018-04-29T17:01:56.184Z,2.90
2018-04-29T17:04:25.139Z,4.30
2018-04-29T17:06:53.963Z,3.30
2018-04-29T17:09:22.837Z,2.90
2018-04-29T17:11:51.585Z,2.97
2018-04-29T17:14:20.387Z,3.17
2018-04-29T17:16:49.191Z,2.23
2018-04-29T17:19:18.025Z,3.07
2018-04-29T17:21:47.141Z,2.73
2018-04-29T17:24:16.240Z,2.73
2018-04-29T17:26:45.358Z,2.40
2018-04-29T17:29:14.599Z,2.80
2018-04-29T17:31:43.685Z,3.00
2018-04-29T17:34:12.801Z,2.60
2018-04-29T17:36:41.940Z,3.33
2018-04-29T17:39:11.044Z,3.20
2018-04-29T17:41:40.192Z,3.37
2018-04-29T17:44:09.361Z,2.33
2018-04-29T17:46:38.429Z,2.73
2018-04-29T17:49:07.559Z,2.17
2018-04-29T17:51:36.711Z,2.33
2018-04-29T17:54:05.812Z,2.63
2018-04-29T17:56:34.923Z,3.20
2018-04-29T17:59:04.046Z,1.90
2018-04-29T18:01:33.197Z,3.03
2018-04-29T18:04:02.330Z,2.50
2018-04-29T18:06:31.435Z,2.93
2018-04-29T18:09:00.543Z,2.50
2018-04-29T18:11:29.671Z,3.30
2018-04-29T18:13:58.802Z,3.17
2018-04-29T18:16:27.908Z,2.30
2018-04-29T18:18:57.016Z,2.00
2018-04-29T18:21:26.116Z,2.30
2018-04-29T18:23:55.247Z,2.70
2018-04-29T18:26:24.364Z,1.90
2018-04-29T18:28:53.479Z,2.60
2018-04-29T18:31:22.593Z,2.17
2018-04-29T18:33:52.267Z,2.60
2018-04-29T18:36:21.392Z,2.90
2018-04-29T18:38:50.490Z,2.53
2018-04-29T18:41:19.617Z,2.00
2018-04-29T18:43:48.740Z,2.10
2018-04-29T18:46:17.897Z,1.90
2018-04-29T18:48:48.582Z,2.50
2018-04-29T18:51:17.522Z,2.77
2018-04-29T18:53:46.413Z,2.30
2018-04-29T18:56:15.612Z,2.10
2018-04-29T18:58:44.600Z,2.67
2018-04-29T19:01:13.616Z,2.47
2018-04-29T19:03:42.719Z,2.50
2018-04-29T19:06:11.864Z,2.20
2018-04-29T19:08:40.969Z,1.80
2018-04-29T19:11:10.062Z,2.67
2018-04-29T19:13:39.158Z,2.80
2018-04-29T19:16:08.258Z,2.50
2018-04-29T19:18:37.354Z,2.73
2018-04-29T19:21:06.438Z,3.50
2018-04-29T19:23:35.537Z,2.97
2018-04-29T19:26:04.614Z,2.73
2018-04-29T19:28:33.732Z,3.00
2018-04-29T19:31:02.832Z,3.40
2018-04-29T19:33:31.947Z,3.40
2018-04-29T19:36:01.045Z,2.20
2018-04-29T19:38:30.156Z,2.70
2018-04-29T19:40:59.238Z,2.63
2018-04-29T19:43:28.335Z,4.63
2018-04-29T19:45:57.422Z,2.73
2018-04-29T19:48:26.506Z,2.90
2018-04-29T19:50:55.593Z,2.60
2018-04-29T19:53:24.690Z,2.90
2018-04-29T19:55:53.778Z,3.50
2018-04-29T19:58:22.875Z,3.17
2018-04-29T20:00:51.962Z,2.40
2018-04-29T20:03:21.059Z,4.37
2018-04-29T20:05:50.147Z,3.07
2018-04-29T20:08:19.242Z,3.10
2018-04-29T20:10:48.335Z,3.10
2018-04-29T20:13:17.424Z,3.30
2018-04-29T20:15:46.522Z,3.60
2018-04-29T20:18:15.613Z,2.83
2018-04-29T20:20:44.702Z,3.30
2018-04-29T20:23:13.797Z,3.63
2018-04-29T20:25:42.882Z,2.70
2018-04-29T20:28:11.987Z,3.70
2018-04-29T20:30:41.068Z,3.17
2018-04-29T20:33:10.146Z,2.80
2018-04-29T20:35:39.234Z,2.67
2018-04-29T20:38:08.879Z,2.67
2018-04-29T20:40:37.897Z,3.73
2018-04-29T20:43:06.931Z,3.13
2018-04-29T20:45:35.911Z,3.03
2018-04-29T20:48:04.925Z,3.20
2018-04-29T20:50:33.889Z,2.60
2018-04-29T20:53:02.877Z,2.87
2018-04-29T20:55:31.898Z,2.70
2018-04-29T20:58:00.918Z,3.53
2018-04-29T21:00:29.930Z,3.17
2018-04-29T21:02:58.937Z,3.67
2018-04-29T21:05:27.933Z,3.83
2018-04-29T21:07:56.842Z,2.77
2018-04-29T21:10:27.245Z,3.20
2018-04-29T21:12:56.128Z,3.47
2018-04-29T21:15:25.018Z,2.93
2018-04-29T21:17:55.503Z,2.43
2018-04-29T21:20:24.390Z,3.20
2018-04-29T21:22:53.262Z,3.10
2018-04-29T21:25:22.135Z,2.80
2018-04-29T21:27:51.010Z,3.20
2018-04-29T21:30:23.187Z,2.90
2018-04-29T21:32:52.064Z,2.67
2018-04-29T21:35:20.914Z,2.63
2018-04-29T21:37:54.122Z,2.37
2018-04-29T21:40:22.978Z,3.47
2018-04-29T21:42:51.834Z,2.83
2018-04-29T21:45:22.952Z,3.07
2018-04-29T21:47:54.111Z,2.77
2018-04-29T21:50:23.041Z,3.90
2018-04-29T21:52:51.978Z,3.67
2018-04-29T21:55:20.891Z,2.80
2018-04-29T21:57:49.790Z,2.40
2018-04-29T22:00:19.672Z,3.00
2018-04-29T22:02:48.632Z,2.30
2018-04-29T22:05:17.516Z,2.70
2018-04-29T22:07:46.423Z,2.60
2018-04-29T22:10:15.387Z,2.27
2018-04-29T22:12:44.375Z,1.80
2018-04-29T22:15:13.364Z,2.47
2018-04-29T22:17:42.454Z,2.00
2018-04-29T22:20:11.472Z,1.70
2018-04-29T22:22:40.475Z,1.77
2018-04-29T22:25:09.416Z,1.90
2018-04-29T22:27:40.739Z,2.27
2018-04-29T22:30:09.656Z,2.00
2018-04-29T22:32:38.555Z,2.20
2018-04-29T22:35:07.363Z,1.90
2018-04-29T22:37:36.172Z,1.63
2018-04-29T22:40:04.971Z,2.10
2018-04-29T22:42:35.907Z,1.93
2018-04-29T22:45:04.715Z,1.93
2018-04-29T22:47:33.531Z,1.77
2018-04-29T22:50:06.794Z,2.13
2018-04-29T22:52:35.659Z,1.67
2018-04-29T22:55:04.531Z,1.67
2018-04-29T22:57:37.825Z,1.80
2018-04-29T23:00:06.704Z,1.40
2018-04-29T23:02:37.866Z,2.37
2018-04-29T23:05:09.003Z,1.80
2018-04-29T23:07:39.356Z,1.87
2018-04-29T23:10:08.260Z,1.93
2018-04-29T23:12:39.200Z,1.60
2018-04-29T23:15:08.092Z,1.90
2018-04-29T23:17:39.231Z,1.73
2018-04-29T23:20:08.098Z,1.80
2018-04-29T23:22:37.012Z,1.60
2018-04-29T23:25:07.286Z,2.30
2018-04-29T23:27:36.139Z,2.80
2018-04-29T23:30:05.006Z,2.17
2018-04-29T23:32:36.149Z,2.30
2018-04-29T23:35:05.039Z,1.73
2018-04-29T23:37:35.745Z,2.57
2018-04-29T23:40:04.599Z,1.70
2018-04-29T23:42:33.454Z,2.53
2018-04-29T23:45:02.354Z,1.90
2018-04-29T23:47:31.264Z,2.07
2018-04-29T23:50:02.422Z,2.17
2018-04-29T23:52:31.286Z,2.17
2018-04-29T23:55:00.182Z,2.37
2018-04-29T23:57:33.248Z,2.17
